Time;durP1;ratioP1;P1;durP2;ratioP2;P2;SDS_P1;SDS_P2;PMS_P1;PMS_P2;Temp;Humidity;BMP_temperature;BMP_pressure;BME280_temperature;BME280_humidity;BME280_pressure;Samples;Min_cycle;Max_cycle;Signal;HPM_P1;HPM_P2
2022/10/23 00:02:01;;;;;;;0.20;0.20;;;12.50;99.90;;;;;;5005713;28;20196;-82
2022/10/23 00:04:27;;;;;;;0.10;0.10;;;12.50;99.90;;;;;;5002845;28;20192;-83
2022/10/23 00:06:53;;;;;;;0.20;0.20;;;12.50;99.90;;;;;;5002715;28;20451;-82
2022/10/23 00:09:21;;;;;;;0.20;0.20;;;12.50;99.90;;;;;;5006140;28;20495;-82
2022/10/23 00:11:49;;;;;;;0.20;0.20;;;12.40;99.90;;;;;;4989598;28;20656;-82
2022/10/23 00:14:16;;;;;;;0.20;0.20;;;12.40;99.90;;;;;;4990102;28;20446;-82
2022/10/23 00:16:42;;;;;;;0.20;0.20;;;12.40;99.90;;;;;;5007779;28;20445;-82
2022/10/23 00:19:07;;;;;;;0.10;0.10;;;12.30;99.90;;;;;;5003876;28;20569;-82
2022/10/23 00:21:33;;;;;;;0.17;0.17;;;12.30;99.90;;;;;;4994169;28;20234;-82
2022/10/23 00:23:59;;;;;;;0.20;0.20;;;12.30;99.90;;;;;;5000616;28;20192;-82
2022/10/23 00:26:24;;;;;;;0.10;0.10;;;12.30;99.90;;;;;;4988322;28;20722;-83
2022/10/23 00:28:52;;;;;;;0.20;0.20;;;12.30;99.90;;;;;;4988563;28;20191;-82
2022/10/23 00:31:19;;;;;;;0.20;0.20;;;12.20;99.90;;;;;;5005503;28;20176;-83
2022/10/23 00:33:45;;;;;;;0.17;0.17;;;12.20;99.90;;;;;;5007202;28;20522;-83
2022/10/23 00:36:13;;;;;;;0.20;0.20;;;12.30;99.90;;;;;;5000828;28;20501;-83
2022/10/23 00:38:39;;;;;;;0.17;0.17;;;12.20;99.90;;;;;;5006803;28;20540;-82
2022/10/23 00:41:07;;;;;;;0.20;0.20;;;12.10;99.90;;;;;;5008627;28;20938;-83
2022/10/23 00:43:33;;;;;;;0.20;0.20;;;12.10;99.90;;;;;;5006939;28;20454;-83
2022/10/23 00:45:59;;;;;;;0.20;0.20;;;12.10;99.90;;;;;;5002428;28;20810;-83
2022/10/23 00:48:26;;;;;;;0.20;0.20;;;12.10;99.90;;;;;;5007055;28;20466;-82
2022/10/23 00:50:53;;;;;;;0.20;0.20;;;12.00;99.90;;;;;;5004921;28;20454;-82
2022/10/23 00:53:19;;;;;;;0.20;0.20;;;12.00;99.90;;;;;;4989457;28;20459;-83
2022/10/23 00:55:47;;;;;;;0.20;0.20;;;12.00;99.90;;;;;;5011849;28;20453;-83
2022/10/23 00:58:14;;;;;;;0.20;0.20;;;12.00;99.90;;;;;;5012584;28;20484;-82
2022/10/23 01:00:46;;;;;;;0.13;0.13;;;11.90;99.90;;;;;;5005116;28;20436;-83
2022/10/23 01:03:14;;;;;;;0.17;0.17;;;11.90;99.90;;;;;;5009877;28;20439;-83
2022/10/23 01:06:01;;;;;;;0.10;0.10;;;11.90;99.90;;;;;;5009820;28;20447;-82
2022/10/23 01:08:33;;;;;;;0.20;0.20;;;11.80;99.90;;;;;;5006849;28;20442;-83
2022/10/23 01:11:14;;;;;;;0.20;0.20;;;11.70;99.90;;;;;;5009550;28;20493;-82
2022/10/23 01:14:00;;;;;;;0.20;0.20;;;11.70;99.90;;;;;;5010879;28;20450;-83
2022/10/23 01:16:49;;;;;;;0.20;0.20;;;11.70;99.90;;;;;;4996842;28;20461;-83
2022/10/23 01:19:43;;;;;;;0.20;0.20;;;11.70;99.90;;;;;;4998244;28;20519;-82
2022/10/23 01:22:34;;;;;;;0.20;0.20;;;11.70;99.90;;;;;;4975668;28;20444;-83
2022/10/23 01:25:40;;;;;;;0.20;0.20;;;11.70;99.90;;;;;;5008461;28;20795;-82
2022/10/23 01:28:09;;;;;;;0.20;0.20;;;11.70;99.90;;;;;;4931782;29;20473;-83
2022/10/23 01:30:41;;;;;;;0.20;0.20;;;11.60;99.90;;;;;;4996489;28;20446;-83
2022/10/23 01:33:11;;;;;;;0.20;0.20;;;11.60;99.90;;;;;;5009352;28;20443;-82
2022/10/23 01:35:51;;;;;;;0.20;0.20;;;11.50;99.90;;;;;;5002335;28;20447;-83
2022/10/23 01:38:41;;;;;;;0.20;0.20;;;11.50;99.90;;;;;;5004175;28;20494;-83
2022/10/23 01:41:12;;;;;;;0.20;0.20;;;11.40;99.90;;;;;;5005422;28;20440;-82
2022/10/23 01:43:58;;;;;;;0.20;0.20;;;11.50;99.90;;;;;;5009597;28;20447;-83
2022/10/23 01:46:26;;;;;;;0.20;0.20;;;11.50;99.90;;;;;;5011594;28;20446;-83
2022/10/23 01:48:56;;;;;;;0.10;0.10;;;11.50;99.90;;;;;;5010370;28;20947;-83
2022/10/23 01:51:27;;;;;;;0.20;0.20;;;11.50;99.90;;;;;;4992244;28;20446;-83
2022/10/23 01:53:57;;;;;;;0.20;0.20;;;11.40;99.90;;;;;;4992766;28;20911;-82
2022/10/23 01:56:27;;;;;;;0.20;0.20;;;11.30;99.90;;;;;;4993513;28;20439;-83
2022/10/23 01:58:55;;;;;;;0.20;0.20;;;11.30;99.90;;;;;;5009034;28;20504;-83
2022/10/23 02:01:24;;;;;;;0.20;0.20;;;11.30;99.90;;;;;;5004040;28;20470;-83
2022/10/23 02:03:51;;;;;;;0.10;0.10;;;11.40;99.90;;;;;;5004903;28;20965;-82
2022/10/23 02:06:17;;;;;;;0.20;0.20;;;11.30;99.90;;;;;;4996408;28;20435;-83
2022/10/23 02:08:43;;;;;;;0.20;0.20;;;11.40;99.90;;;;;;5003654;28;20446;-83
2022/10/23 02:11:12;;;;;;;0.20;0.20;;;11.30;99.90;;;;;;5006194;28;20192;-83
2022/10/23 02:14:12;;;;;;;0.20;0.20;;;11.30;99.90;;;;;;5009380;28;20188;-83
2022/10/23 02:16:40;;;;;;;0.20;0.20;;;11.30;99.90;;;;;;4996770;28;20479;-83
2022/10/23 02:19:32;;;;;;;0.20;0.20;;;11.20;99.90;;;;;;5000753;28;20567;-83
2022/10/23 02:22:08;;;;;;;0.20;0.20;;;11.10;99.90;;;;;;5009976;28;20449;-83
2022/10/23 02:25:14;;;;;;;0.20;0.20;;;11.10;99.90;;;;;;4993989;28;20485;-83
2022/10/23 02:27:44;;;;;;;0.20;0.20;;;11.10;99.90;;;;;;4948953;28;20457;-82
2022/10/23 02:30:12;;;;;;;0.20;0.20;;;11.10;99.90;;;;;;4948929;28;20497;-82
2022/10/23 02:32:42;;;;;;;0.20;0.20;;;11.10;99.90;;;;;;4978078;28;20436;-83
2022/10/23 02:35:08;;;;;;;0.20;0.20;;;11.10;99.90;;;;;;4990307;28;20977;-83
2022/10/23 02:37:33;;;;;;;0.20;0.20;;;11.10;99.90;;;;;;5008380;28;20490;-83
2022/10/23 02:39:59;;;;;;;0.20;0.20;;;11.10;99.90;;;;;;5008409;28;20196;-82
2022/10/23 02:42:41;;;;;;;0.20;0.20;;;11.10;99.90;;;;;;5010532;28;20230;-82
2022/10/23 02:45:27;;;;;;;0.20;0.20;;;11.00;99.90;;;;;;5006105;28;20447;-82
2022/10/23 02:48:40;;;;;;;0.20;0.20;;;11.00;99.90;;;;;;5005124;28;20443;-82
2022/10/23 02:51:17;;;;;;;0.20;0.20;;;10.90;99.90;;;;;;4904498;29;20488;-82
2022/10/23 02:53:45;;;;;;;0.20;0.20;;;10.80;99.90;;;;;;4929689;29;20451;-83
2022/10/23 02:56:22;;;;;;;0.20;0.20;;;10.80;99.90;;;;;;4979415;28;20483;-82
2022/10/23 02:59:14;;;;;;;0.20;0.20;;;10.90;99.90;;;;;;5010671;28;20482;-83
2022/10/23 03:01:48;;;;;;;0.20;0.20;;;10.80;99.90;;;;;;4990621;28;20447;-83
2022/10/23 03:04:16;;;;;;;0.20;0.20;;;10.80;99.90;;;;;;5002484;28;20482;-82
2022/10/23 03:06:42;;;;;;;0.20;0.20;;;10.80;99.90;;;;;;4999357;28;20928;-82
2022/10/23 03:09:08;;;;;;;0.20;0.20;;;10.70;99.90;;;;;;5008460;28;20435;-82
2022/10/23 03:11:34;;;;;;;0.20;0.20;;;10.70;99.90;;;;;;5002824;28;21142;-82
2022/10/23 03:14:00;;;;;;;0.20;0.20;;;10.60;99.90;;;;;;5009122;28;20542;-82
2022/10/23 03:16:26;;;;;;;0.20;0.20;;;10.60;99.90;;;;;;4992205;28;20879;-82
2022/10/23 03:18:52;;;;;;;0.20;0.20;;;10.60;99.90;;;;;;5002491;28;20224;-82
2022/10/23 03:21:17;;;;;;;0.20;0.20;;;10.60;99.90;;;;;;4990554;28;20185;-82
2022/10/23 03:23:43;;;;;;;0.20;0.20;;;10.60;99.90;;;;;;5009729;28;20621;-83
2022/10/23 03:26:08;;;;;;;0.20;0.20;;;10.60;99.90;;;;;;5008072;28;20231;-83
2022/10/23 03:28:34;;;;;;;0.20;0.20;;;10.60;99.90;;;;;;4991400;28;20223;-82
2022/10/23 03:31:04;;;;;;;0.20;0.20;;;10.50;99.90;;;;;;4992052;28;20192;-82
2022/10/23 03:33:30;;;;;;;0.20;0.20;;;10.50;99.90;;;;;;5007151;28;20243;-82
2022/10/23 03:35:56;;;;;;;0.20;0.20;;;10.40;99.90;;;;;;5006228;28;20450;-81
2022/10/23 03:38:21;;;;;;;0.20;0.20;;;10.40;99.90;;;;;;4992379;28;20488;-82
2022/10/23 03:40:47;;;;;;;0.20;0.20;;;10.40;99.90;;;;;;4992134;28;20199;-82
2022/10/23 03:43:12;;;;;;;0.20;0.20;;;10.40;99.90;;;;;;5006234;28;20274;-82
2022/10/23 03:45:38;;;;;;;0.20;0.20;;;10.30;99.90;;;;;;5006427;28;20188;-82
2022/10/23 03:48:07;;;;;;;0.20;0.20;;;10.20;99.90;;;;;;4986328;28;20242;-82
2022/10/23 03:50:33;;;;;;;0.30;0.30;;;10.30;99.90;;;;;;5004475;28;20278;-83
2022/10/23 03:52:58;;;;;;;0.20;0.20;;;10.30;99.90;;;;;;4990075;28;20901;-82
2022/10/23 03:55:25;;;;;;;0.20;0.20;;;10.30;99.90;;;;;;5003760;28;20541;-82
2022/10/23 03:57:51;;;;;;;0.20;0.20;;;10.30;99.90;;;;;;5004679;28;20847;-82
2022/10/23 04:00:17;;;;;;;0.20;0.20;;;10.30;99.90;;;;;;4999714;28;21001;-82
2022/10/23 04:02:43;;;;;;;0.20;0.20;;;10.30;99.90;;;;;;4991403;28;20459;-82
2022/10/23 04:05:08;;;;;;;0.20;0.20;;;10.30;99.90;;;;;;5008191;28;20188;-83
2022/10/23 04:07:35;;;;;;;0.20;0.20;;;10.20;99.90;;;;;;5006773;28;20214;-82
2022/10/23 04:10:00;;;;;;;0.20;0.20;;;10.20;99.90;;;;;;5007604;28;20259;-83
2022/10/23 04:12:26;;;;;;;0.20;0.20;;;10.20;99.90;;;;;;5007375;28;20926;-81
2022/10/23 04:14:51;;;;;;;0.20;0.20;;;10.20;99.90;;;;;;4991114;28;20200;-82
2022/10/23 04:17:17;;;;;;;0.20;0.20;;;10.20;99.90;;;;;;5005774;28;20275;-82
2022/10/23 04:19:42;;;;;;;0.20;0.20;;;10.10;99.90;;;;;;5006875;28;20200;-82
2022/10/23 04:22:08;;;;;;;0.20;0.20;;;10.10;99.90;;;;;;4990351;28;20234;-82
2022/10/23 04:24:33;;;;;;;0.20;0.20;;;10.10;99.90;;;;;;5004654;28;20275;-82
2022/10/23 04:26:59;;;;;;;0.20;0.20;;;10.10;99.90;;;;;;5002650;28;20275;-83
2022/10/23 04:29:24;;;;;;;0.20;0.20;;;10.10;99.90;;;;;;5006754;28;20192;-82
2022/10/23 04:31:50;;;;;;;0.20;0.20;;;10.10;99.90;;;;;;5005457;28;20637;-82
2022/10/23 04:34:17;;;;;;;0.20;0.20;;;10.10;99.90;;;;;;4992184;28;20656;-82
2022/10/23 04:36:42;;;;;;;0.20;0.20;;;10.10;99.90;;;;;;4999670;28;20232;-82
2022/10/23 04:39:09;;;;;;;0.20;0.20;;;10.10;99.90;;;;;;5009107;28;20545;-82
2022/10/23 04:41:34;;;;;;;0.20;0.20;;;10.10;99.90;;;;;;5012808;28;20196;-83
2022/10/23 04:44:00;;;;;;;0.20;0.20;;;10.10;99.90;;;;;;5011897;28;20462;-82
2022/10/23 04:46:25;;;;;;;0.20;0.20;;;10.10;99.90;;;;;;5000793;28;20180;-82
2022/10/23 04:48:51;;;;;;;0.20;0.20;;;10.10;99.90;;;;;;5006868;28;20631;-82
2022/10/23 04:51:17;;;;;;;0.20;0.20;;;10.20;99.90;;;;;;5011899;28;20215;-83
2022/10/23 04:53:42;;;;;;;0.20;0.20;;;10.20;99.90;;;;;;4995696;28;20195;-83
2022/10/23 04:56:12;;;;;;;0.20;0.20;;;10.20;99.90;;;;;;5012132;28;20219;-82
2022/10/23 04:58:37;;;;;;;0.20;0.20;;;10.20;99.90;;;;;;5010104;28;20251;-83
2022/10/23 05:01:03;;;;;;;0.20;0.20;;;10.10;99.90;;;;;;4998490;28;20933;-84
2022/10/23 05:03:28;;;;;;;0.20;0.20;;;10.20;99.90;;;;;;5003742;28;20201;-83
2022/10/23 05:05:55;;;;;;;0.20;0.20;;;10.10;99.90;;;;;;4989294;28;20247;-82
2022/10/23 05:08:22;;;;;;;0.20;0.20;;;10.20;99.90;;;;;;5010968;28;20216;-82
2022/10/23 05:10:48;;;;;;;0.20;0.20;;;10.20;99.90;;;;;;5002577;28;20443;-83
2022/10/23 05:13:15;;;;;;;0.20;0.20;;;10.20;99.90;;;;;;5009766;28;20486;-83
2022/10/23 05:15:41;;;;;;;0.20;0.20;;;10.20;99.90;;;;;;4998739;28;20439;-83
2022/10/23 05:18:14;;;;;;;0.20;0.20;;;10.10;99.90;;;;;;5008646;28;20684;-83
2022/10/23 05:20:40;;;;;;;0.20;0.20;;;10.10;99.90;;;;;;5009962;28;20695;-83
2022/10/23 05:23:09;;;;;;;0.20;0.20;;;10.10;99.90;;;;;;5007280;28;20468;-83
2022/10/23 05:25:35;;;;;;;0.20;0.20;;;10.10;99.90;;;;;;5003711;28;20944;-82
2022/10/23 05:28:00;;;;;;;0.20;0.20;;;10.10;99.90;;;;;;5007446;28;20446;-81
2022/10/23 05:30:26;;;;;;;0.20;0.20;;;10.10;99.90;;;;;;5008764;28;20263;-81
2022/10/23 05:32:51;;;;;;;0.20;0.20;;;10.10;99.90;;;;;;5009835;28;20208;-82
2022/10/23 05:35:22;;;;;;;0.20;0.20;;;10.10;99.90;;;;;;4992102;28;20189;-81
2022/10/23 05:37:49;;;;;;;0.20;0.20;;;10.20;99.90;;;;;;5004940;28;20231;-82
2022/10/23 05:40:16;;;;;;;0.20;0.20;;;10.20;99.90;;;;;;5009267;28;20556;-82
2022/10/23 05:42:41;;;;;;;0.20;0.20;;;10.20;99.90;;;;;;5010574;28;20967;-82
2022/10/23 05:45:07;;;;;;;0.20;0.20;;;10.20;99.90;;;;;;5006732;28;20489;-83
2022/10/23 05:47:33;;;;;;;0.20;0.20;;;10.20;99.90;;;;;;5003410;28;20199;-81
2022/10/23 05:49:59;;;;;;;0.20;0.20;;;10.20;99.90;;;;;;5002277;28;20431;-83
2022/10/23 05:52:24;;;;;;;0.20;0.20;;;10.20;99.90;;;;;;4988894;28;20216;-82
2022/10/23 05:54:50;;;;;;;0.20;0.20;;;10.20;99.90;;;;;;5002758;28;20190;-83
2022/10/23 05:57:16;;;;;;;0.20;0.20;;;10.10;99.90;;;;;;4988284;28;20207;-82
2022/10/23 05:59:42;;;;;;;0.20;0.20;;;10.10;99.90;;;;;;5005160;28;20443;-82
2022/10/23 06:02:07;;;;;;;0.20;0.20;;;10.10;99.90;;;;;;5008168;28;20777;-83
2022/10/23 06:04:34;;;;;;;0.20;0.20;;;10.00;99.90;;;;;;5009052;28;20663;-83
2022/10/23 06:07:00;;;;;;;0.20;0.20;;;10.10;99.90;;;;;;5007192;28;20189;-83
2022/10/23 06:09:25;;;;;;;0.20;0.20;;;10.00;99.90;;;;;;5007881;28;20462;-83
2022/10/23 06:11:51;;;;;;;0.20;0.20;;;10.00;99.90;;;;;;5004980;28;20184;-82
2022/10/23 06:14:16;;;;;;;0.20;0.20;;;10.00;99.90;;;;;;5007841;28;20192;-84
2022/10/23 06:16:42;;;;;;;0.20;0.20;;;10.00;99.90;;;;;;5007481;28;20219;-82
2022/10/23 06:19:13;;;;;;;0.20;0.20;;;10.00;99.90;;;;;;5005548;28;20228;-83
2022/10/23 06:21:40;;;;;;;0.20;0.20;;;10.00;99.90;;;;;;5007195;28;20805;-83
2022/10/23 06:24:06;;;;;;;0.20;0.20;;;9.90;99.90;;;;;;4990616;28;20471;-81
2022/10/23 06:26:32;;;;;;;0.20;0.20;;;9.90;99.90;;;;;;4991766;28;20447;-82
2022/10/23 06:28:58;;;;;;;0.20;0.20;;;9.90;99.90;;;;;;4996298;28;21092;-81
2022/10/23 06:31:27;;;;;;;0.20;0.20;;;9.90;99.90;;;;;;5009446;28;20455;-82
2022/10/23 06:33:56;;;;;;;0.20;0.20;;;9.90;99.90;;;;;;5009277;28;20439;-82
2022/10/23 06:36:22;;;;;;;0.20;0.20;;;9.90;99.90;;;;;;4991301;28;20487;-81
2022/10/23 06:38:48;;;;;;;0.20;0.20;;;10.00;99.90;;;;;;5007312;28;20479;-81
2022/10/23 06:41:19;;;;;;;0.20;0.20;;;9.80;99.90;;;;;;5005964;28;20501;-80
2022/10/23 06:43:47;;;;;;;0.20;0.20;;;9.80;99.90;;;;;;5001853;28;20540;-80
2022/10/23 06:46:13;;;;;;;0.20;0.20;;;9.90;99.90;;;;;;4980050;28;20878;-80
2022/10/23 06:48:41;;;;;;;0.20;0.20;;;9.80;99.90;;;;;;5009996;28;20570;-80
2022/10/23 06:51:09;;;;;;;0.20;0.20;;;9.80;99.90;;;;;;5006335;28;20462;-78
2022/10/23 06:53:35;;;;;;;0.20;0.20;;;9.80;99.90;;;;;;5009722;28;20447;-81
2022/10/23 06:56:02;;;;;;;0.20;0.20;;;9.80;99.90;;;;;;4990909;28;20834;-80
2022/10/23 06:58:28;;;;;;;0.20;0.20;;;9.80;99.90;;;;;;5011283;28;20475;-80
2022/10/23 07:00:54;;;;;;;0.20;0.20;;;9.80;99.90;;;;;;5005144;28;20432;-81
2022/10/23 07:03:20;;;;;;;0.20;0.20;;;9.80;99.90;;;;;;4992565;28;20607;-80
2022/10/23 07:05:48;;;;;;;0.20;0.20;;;9.80;99.90;;;;;;5005679;28;20447;-81
2022/10/23 07:08:14;;;;;;;0.20;0.20;;;9.90;99.90;;;;;;5009860;28;20240;-78
2022/10/23 07:10:41;;;;;;;0.20;0.20;;;10.00;99.90;;;;;;4990206;28;20451;-78
2022/10/23 07:13:08;;;;;;;0.20;0.20;;;9.90;99.90;;;;;;5009643;28;20818;-81
2022/10/23 07:15:34;;;;;;;0.20;0.20;;;9.90;99.90;;;;;;5007093;28;20954;-77
2022/10/23 07:17:59;;;;;;;0.20;0.20;;;9.90;99.90;;;;;;4992334;28;20919;-80
2022/10/23 07:20:25;;;;;;;0.20;0.20;;;9.90;99.90;;;;;;4999084;28;20528;-80
2022/10/23 07:22:54;;;;;;;0.20;0.20;;;9.90;99.90;;;;;;5008816;28;20196;-80
2022/10/23 07:25:22;;;;;;;0.20;0.20;;;10.00;99.90;;;;;;5003681;28;20196;-77
2022/10/23 07:27:48;;;;;;;0.20;0.20;;;10.00;99.90;;;;;;5001465;28;20446;-80
2022/10/23 07:30:15;;;;;;;0.20;0.20;;;10.10;99.90;;;;;;4994132;28;20443;-79
2022/10/23 07:32:40;;;;;;;0.20;0.20;;;10.10;99.90;;;;;;5003884;28;20436;-80
2022/10/23 07:35:07;;;;;;;0.20;0.20;;;10.10;99.90;;;;;;5002406;28;20440;-80
2022/10/23 07:37:32;;;;;;;0.20;0.20;;;10.10;99.90;;;;;;4999357;28;20289;-80
2022/10/23 07:39:58;;;;;;;0.20;0.20;;;10.20;99.90;;;;;;5009082;28;20455;-79
2022/10/23 07:42:23;;;;;;;0.20;0.20;;;10.20;99.90;;;;;;5006226;28;20199;-79
2022/10/23 07:44:49;;;;;;;0.20;0.20;;;10.20;99.90;;;;;;5008627;28;21915;-81
2022/10/23 07:47:14;;;;;;;0.20;0.20;;;10.20;99.90;;;;;;5007698;28;20483;-80
2022/10/23 07:49:40;;;;;;;0.20;0.20;;;10.20;99.90;;;;;;5010183;28;20183;-80
2022/10/23 07:52:06;;;;;;;0.20;0.20;;;10.20;99.90;;;;;;5003525;28;20196;-79
2022/10/23 07:54:32;;;;;;;0.20;0.20;;;10.30;99.90;;;;;;4985493;28;20198;-81
2022/10/23 07:56:59;;;;;;;0.20;0.20;;;10.30;99.90;;;;;;5006738;28;20439;-82
2022/10/23 07:59:25;;;;;;;0.20;0.20;;;10.40;99.90;;;;;;4999454;28;20228;-82
2022/10/23 08:01:53;;;;;;;0.20;0.20;;;10.40;99.90;;;;;;4983182;28;20454;-81
2022/10/23 08:04:19;;;;;;;0.20;0.20;;;10.50;99.90;;;;;;5004286;28;20428;-81
2022/10/23 08:06:45;;;;;;;0.20;0.20;;;10.50;99.90;;;;;;5004279;28;20434;-82
2022/10/23 08:09:14;;;;;;;0.20;0.20;;;10.60;99.90;;;;;;5000307;28;20192;-82
2022/10/23 08:11:40;;;;;;;0.20;0.20;;;10.60;99.90;;;;;;5003431;28;20731;-81
2022/10/23 08:14:07;;;;;;;0.20;0.20;;;10.50;99.90;;;;;;4995698;28;20482;-82
2022/10/23 08:16:34;;;;;;;0.20;0.20;;;10.60;99.90;;;;;;5006783;28;20190;-81
2022/10/23 08:19:00;;;;;;;0.20;0.20;;;10.60;99.90;;;;;;5002671;28;20478;-81
2022/10/23 08:21:26;;;;;;;0.10;0.10;;;10.60;99.90;;;;;;4988676;28;20438;-80
2022/10/23 08:23:56;;;;;;;0.20;0.20;;;10.70;99.90;;;;;;4973321;28;20885;-82
2022/10/23 08:26:23;;;;;;;0.20;0.20;;;10.70;99.90;;;;;;4976431;28;20276;-81
2022/10/23 08:28:49;;;;;;;0.20;0.20;;;10.80;99.90;;;;;;4982226;28;20448;-81
2022/10/23 08:31:17;;;;;;;0.20;0.20;;;10.80;99.90;;;;;;5005018;28;20474;-81
2022/10/23 08:33:43;;;;;;;0.20;0.20;;;10.90;99.90;;;;;;4989182;28;20529;-81
2022/10/23 08:36:35;;;;;;;0.20;0.20;;;11.00;99.90;;;;;;4974902;28;20439;-79
2022/10/23 08:39:04;;;;;;;0.20;0.20;;;11.00;99.90;;;;;;4996522;28;20483;-81
2022/10/23 08:41:41;;;;;;;0.20;0.20;;;11.10;99.90;;;;;;5005700;28;20946;-81
2022/10/23 08:44:26;;;;;;;0.20;0.20;;;11.20;99.90;;;;;;5006165;28;20583;-81
2022/10/23 08:46:58;;;;;;;0.10;0.10;;;11.20;99.90;;;;;;5008709;28;20443;-80
2022/10/23 08:49:29;;;;;;;0.10;0.10;;;11.20;99.90;;;;;;5008235;28;20455;-80
2022/10/23 08:51:58;;;;;;;0.10;0.10;;;11.20;99.90;;;;;;4990344;28;20482;-81
2022/10/23 08:54:30;;;;;;;0.13;0.13;;;11.30;99.90;;;;;;4998097;28;20461;-81
2022/10/23 08:57:11;;;;;;;0.10;0.10;;;11.40;99.90;;;;;;4997935;28;20442;-81
2022/10/23 08:59:47;;;;;;;0.10;0.10;;;11.40;99.90;;;;;;5005807;28;20589;-81
2022/10/23 09:02:19;;;;;;;0.10;0.10;;;11.30;99.90;;;;;;4995229;28;20585;-81
2022/10/23 09:04:47;;;;;;;0.10;0.10;;;11.30;99.90;;;;;;4998096;28;20971;-81
2022/10/23 09:07:36;;;;;;;0.10;0.10;;;11.20;99.90;;;;;;5003624;28;20510;-81
2022/10/23 09:10:14;;;;;;;0.10;0.10;;;11.30;99.90;;;;;;5004655;28;20439;-81
2022/10/23 09:12:40;;;;;;;0.10;0.10;;;11.40;99.90;;;;;;5006775;28;20443;-81
2022/10/23 09:15:23;;;;;;;0.20;0.20;;;11.50;99.90;;;;;;4996540;28;20466;-82
2022/10/23 09:18:14;;;;;;;0.20;0.20;;;11.50;99.90;;;;;;5002623;28;20497;-80
2022/10/23 09:20:43;;;;;;;0.10;0.10;;;11.60;99.90;;;;;;4980502;28;20455;-81
2022/10/23 09:23:17;;;;;;;0.10;0.10;;;11.70;99.90;;;;;;4991421;28;20471;-81
2022/10/23 09:25:45;;;;;;;0.10;0.10;;;11.80;99.90;;;;;;5010767;28;20996;-81
2022/10/23 09:28:31;;;;;;;0.10;0.10;;;11.90;99.90;;;;;;4991138;28;20431;-80
2022/10/23 09:31:08;;;;;;;0.10;0.10;;;12.00;99.90;;;;;;5003946;28;20547;-80
2022/10/23 09:33:35;;;;;;;0.20;0.20;;;12.00;99.90;;;;;;5000039;28;20892;-80
2022/10/23 09:36:05;;;;;;;0.10;0.10;;;12.10;99.90;;;;;;5007144;28;20443;-82
2022/10/23 09:38:46;;;;;;;0.10;0.10;;;12.20;99.90;;;;;;4992731;28;20519;-81
2022/10/23 09:41:26;;;;;;;0.10;0.10;;;12.30;99.90;;;;;;5007395;28;20452;-82
2022/10/23 09:44:06;;;;;;;0.17;0.17;;;12.40;99.90;;;;;;5007729;28;20463;-81
2022/10/23 09:46:53;;;;;;;0.10;0.10;;;12.60;99.90;;;;;;5006835;28;20439;-81
2022/10/23 09:49:27;;;;;;;0.10;0.10;;;12.50;99.90;;;;;;4991106;28;20512;-81
2022/10/23 09:52:06;;;;;;;0.10;0.10;;;12.60;99.90;;;;;;4991207;28;20443;-81
2022/10/23 09:54:42;;;;;;;0.10;0.10;;;12.70;99.90;;;;;;4993004;28;20462;-81
2022/10/23 09:57:39;;;;;;;0.10;0.10;;;12.80;99.90;;;;;;5001947;28;20454;-81
2022/10/23 10:00:14;;;;;;;0.10;0.10;;;12.90;99.90;;;;;;4988149;28;20460;-82
2022/10/23 10:02:41;;;;;;;0.10;0.10;;;13.00;99.90;;;;;;5001914;28;20480;-82
2022/10/23 10:05:21;;;;;;;0.10;0.10;;;13.00;99.90;;;;;;4995867;28;20518;-82
2022/10/23 10:08:17;;;;;;;0.10;0.10;;;13.20;99.90;;;;;;5011532;28;20944;-81
2022/10/23 10:10:48;;;;;;;0.10;0.10;;;13.20;99.90;;;;;;5011269;28;20454;-82
2022/10/23 10:13:31;;;;;;;0.10;0.10;;;13.00;99.90;;;;;;4990105;28;21002;-82
2022/10/23 10:16:31;;;;;;;0.10;0.10;;;13.00;99.90;;;;;;4980757;28;20438;-80
2022/10/23 10:19:10;;;;;;;0.10;0.10;;;13.00;99.90;;;;;;5010219;28;20486;-81
2022/10/23 10:22:10;;;;;;;0.10;0.10;;;12.90;99.90;;;;;;5000526;28;20439;-82
2022/10/23 10:25:17;;;;;;;0.10;0.10;;;13.20;99.90;;;;;;4990288;28;20571;-81
2022/10/23 10:28:02;;;;;;;0.10;0.10;;;13.00;99.90;;;;;;5007492;28;20443;-82
2022/10/23 10:30:43;;;;;;;0.10;0.10;;;13.20;99.90;;;;;;5006835;28;20501;-81
2022/10/23 10:33:17;;;;;;;0.10;0.10;;;13.50;99.90;;;;;;4992888;28;20897;-81
2022/10/23 10:35:54;;;;;;;0.10;0.10;;;13.90;99.90;;;;;;5008772;28;20492;-81
2022/10/23 10:38:36;;;;;;;0.10;0.10;;;13.90;99.90;;;;;;5004336;28;20486;-81
2022/10/23 10:41:10;;;;;;;0.10;0.10;;;14.40;99.90;;;;;;5006308;28;22498;-83
2022/10/23 10:44:03;;;;;;;0.10;0.10;;;14.40;99.90;;;;;;5012771;28;20483;-82
2022/10/23 10:46:38;;;;;;;0.10;0.10;;;14.20;99.90;;;;;;4985654;28;20485;-81
2022/10/23 10:49:15;;;;;;;0.10;0.10;;;14.50;99.90;;;;;;4989654;28;20439;-83
2022/10/23 10:51:56;;;;;;;0.10;0.10;;;14.90;99.90;;;;;;4989383;28;20807;-84
2022/10/23 10:54:54;;;;;;;0.10;0.10;;;15.00;99.90;;;;;;5008539;28;20438;-82
2022/10/23 10:57:31;;;;;;;0.10;0.10;;;15.00;99.90;;;;;;4986007;28;20456;-80
2022/10/23 11:00:01;;;;;;;0.10;0.10;;;15.10;99.90;;;;;;4990976;28;20451;-81
2022/10/23 11:02:40;;;;;;;0.10;0.10;;;15.40;99.90;;;;;;5005972;28;20499;-81
2022/10/23 11:05:15;;;;;;;0.10;0.10;;;15.30;99.90;;;;;;4984121;28;21017;-81
2022/10/23 11:07:54;;;;;;;0.10;0.10;;;15.50;99.90;;;;;;4991059;28;20439;-80
2022/10/23 11:10:20;;;;;;;0.10;0.10;;;15.40;99.90;;;;;;4989690;28;20553;-83
2022/10/23 11:12:47;;;;;;;0.10;0.10;;;15.40;99.90;;;;;;4972308;28;20512;-81
2022/10/23 11:15:21;;;;;;;0.10;0.10;;;15.40;99.90;;;;;;4992086;28;20561;-81
2022/10/23 11:17:54;;;;;;;0.10;0.10;;;15.40;99.90;;;;;;4990766;28;21694;-81
2022/10/23 11:20:39;;;;;;;0.10;0.10;;;15.30;99.90;;;;;;4976463;28;20452;-81
2022/10/23 11:23:36;;;;;;;0.10;0.10;;;15.60;99.90;;;;;;4992640;28;20435;-81
2022/10/23 11:26:23;;;;;;;0.10;0.10;;;15.60;99.90;;;;;;4986929;28;20455;-81
2022/10/23 11:29:30;;;;;;;0.10;0.10;;;15.70;99.90;;;;;;4977244;28;20455;-81
2022/10/23 11:32:04;;;;;;;0.10;0.10;;;15.90;99.90;;;;;;5000809;28;20458;-81
2022/10/23 11:34:50;;;;;;;0.10;0.10;;;16.00;99.90;;;;;;5001446;28;20453;-81
2022/10/23 11:37:21;;;;;;;0.10;0.10;;;16.00;99.90;;;;;;4999322;28;20475;-81
2022/10/23 11:40:12;;;;;;;0.10;0.10;;;16.10;99.90;;;;;;4999336;28;21001;-80
2022/10/23 11:42:37;;;;;;;0.10;0.10;;;16.00;99.90;;;;;;4996853;28;20439;-79
2022/10/23 11:45:23;;;;;;;0.10;0.10;;;15.70;99.90;;;;;;5003004;28;20481;-80
2022/10/23 11:47:58;;;;;;;0.10;0.10;;;15.70;99.90;;;;;;5003621;28;20668;-80
2022/10/23 11:50:29;;;;;;;0.10;0.10;;;15.70;99.90;;;;;;5005576;28;21154;-81
2022/10/23 11:52:56;;;;;;;0.10;0.10;;;15.60;99.90;;;;;;4985860;28;21050;-80
2022/10/23 11:55:29;;;;;;;0.10;0.10;;;15.80;99.90;;;;;;5006945;28;20454;-80
2022/10/23 11:58:12;;;;;;;0.10;0.10;;;15.80;99.90;;;;;;5001764;28;20493;-79
2022/10/23 12:00:48;;;;;;;0.10;0.10;;;15.90;99.90;;;;;;5004982;28;20489;-82
2022/10/23 12:03:31;;;;;;;0.10;0.10;;;15.90;99.90;;;;;;4995045;28;20936;-79
2022/10/23 12:06:03;;;;;;;0.10;0.10;;;16.20;99.90;;;;;;5002120;28;20541;-80
2022/10/23 12:08:31;;;;;;;0.10;0.10;;;16.30;99.90;;;;;;4981512;28;20471;-80
2022/10/23 12:10:57;;;;;;;0.10;0.10;;;16.40;99.90;;;;;;4975176;28;20434;-79
2022/10/23 12:13:38;;;;;;;0.10;0.10;;;16.50;99.90;;;;;;4985248;28;20850;-79
2022/10/23 12:16:07;;;;;;;0.10;0.10;;;16.60;99.90;;;;;;5003908;28;20517;-79
2022/10/23 12:18:43;;;;;;;0.10;0.10;;;16.30;99.90;;;;;;4989819;28;20558;-80
2022/10/23 12:21:16;;;;;;;0.10;0.10;;;16.40;99.90;;;;;;4999226;28;20445;-80
2022/10/23 12:24:23;;;;;;;0.10;0.10;;;16.60;99.90;;;;;;5004206;28;20439;-78
2022/10/23 12:27:15;;;;;;;0.10;0.10;;;17.00;99.90;;;;;;4976939;28;21322;-79
2022/10/23 12:29:55;;;;;;;0.10;0.10;;;17.20;99.90;;;;;;4995492;28;20577;-79
2022/10/23 12:33:06;;;;;;;0.10;0.10;;;17.20;99.90;;;;;;4996999;28;20800;-79
2022/10/23 12:36:20;;;;;;;0.10;0.10;;;17.60;99.90;;;;;;4986626;28;20459;-80
2022/10/23 12:38:48;;;;;;;0.10;0.00;;;18.00;99.90;;;;;;4963295;28;20554;-81
2022/10/23 12:41:29;;;;;;;0.10;0.00;;;18.80;99.90;;;;;;4996612;28;20538;-79
2022/10/23 12:44:01;;;;;;;0.10;0.10;;;18.40;99.90;;;;;;5002713;28;20524;-79
2022/10/23 12:46:29;;;;;;;0.10;0.00;;;18.10;99.90;;;;;;4999730;28;21258;-80
2022/10/23 12:48:56;;;;;;;0.10;0.10;;;17.60;99.90;;;;;;5006027;28;20530;-80
2022/10/23 12:51:25;;;;;;;0.10;0.10;;;17.40;99.90;;;;;;5004264;28;20442;-79
2022/10/23 12:53:50;;;;;;;0.10;0.00;;;17.60;99.90;;;;;;5005555;28;20435;-80
2022/10/23 12:56:17;;;;;;;0.10;0.10;;;17.80;99.90;;;;;;5002260;28;20455;-79
2022/10/23 12:58:59;;;;;;;0.10;0.00;;;17.90;99.90;;;;;;5010735;28;20651;-79
2022/10/23 13:01:28;;;;;;;0.10;0.10;;;17.90;99.90;;;;;;5007477;28;21000;-79
2022/10/23 13:04:04;;;;;;;0.10;0.10;;;17.80;99.90;;;;;;5003650;28;20526;-79
2022/10/23 13:06:31;;;;;;;0.10;0.00;;;17.60;99.90;;;;;;4997968;28;20568;-79
2022/10/23 13:08:57;;;;;;;0.10;0.10;;;17.30;99.90;;;;;;5008228;28;20447;-79
2022/10/23 13:11:24;;;;;;;0.10;0.10;;;17.10;99.90;;;;;;4992249;28;20443;-80
2022/10/23 13:13:50;;;;;;;0.10;0.10;;;17.00;99.90;;;;;;5004736;28;20442;-79